Mandarin Grace — 9V8352 — position and weather

sailwx.info

Track history (hours):
 
Tides and Currents Weather Stations Pressure Air Temp Water Temp Dewpoint Dewpoint Depression Visibility Wind Speed Wind Dir Waves Ship Positions

Mandarin Grace

Last reported at 2015-Jan-10 18:27 UTC. Time now 2015-Jan-30 20:01 UTC.
Position N 01°16' E 104°11'.
Warning: this ship's position is 20 days out of date.

Length 190 m; draft 11.5 m.

Type: Cargo ship. MMSI: 563862000.

Date/timePositionNaut miles runAvg speedWind from/ knotsBaromVisibWave heightAir tempDewpointWater temp
2015-Jan-10 18:27N 01°16' E 104°11'1011.5
2015-Jan-10 17:33N 01°15' E 104°01'5 4.7
2015-Jan-10 16:33N 01°17' E 103°57'0 0.0
2015-Jan-10 15:11N 01°17' E 103°57'0 0.1
2015-Jan-10 14:05N 01°17' E 103°57'0 0.1
2015-Jan-10 13:11N 01°17' E 103°57'0 0.0
2015-Jan-10 12:17N 01°17' E 103°57'0 0.1
2015-Jan-10 11:05N 01°17' E 103°57'0 0.0
2015-Jan-10 09:29N 01°17' E 103°57'0 0.0
2015-Jan-10 08:29N 01°17' E 103°57'0 0.1
2015-Jan-10 07:17N 01°17' E 103°57'0 0.1
2015-Jan-10 06:05N 01°17' E 103°57'0 0.1
2015-Jan-10 05:17N 01°17' E 103°57'0 0.1
2015-Jan-10 04:29N 01°17' E 103°56'0 0.0
2015-Jan-10 03:29N 01°17' E 103°56'0 0.0
2015-Jan-10 02:17N 01°17' E 103°56'0 0.0
2015-Jan-10 01:05N 01°17' E 103°56'0 0.8
2015-Jan-10 00:31N 01°16' E 103°56'3 2.8
2015-Jan-09 23:33N 01°14' E 103°57'5 4.7
2015-Jan-09 22:32N 01°11' E 103°52'4 4.4
2015-Jan-09 21:31N 01°10' E 103°48'8111.2
2015-Jan-09 14:17N 01°44' E 102°34'  
Track history (hours):
 
Tides and Currents Weather Stations Pressure Air Temp Water Temp Dewpoint Dewpoint Depression Visibility Wind Speed Wind Dir Waves Ship Positions

Mandarin Grace

Last reported at 2015-Jan-10 18:27 UTC. Time now 2015-Jan-30 20:01 UTC.
Position N 01°16' E 104°11'.
Warning: this ship's position is 20 days out of date.

Length 190 m; draft 11.5 m.

Type: Cargo ship. MMSI: 563862000.

Date/timePositionNaut miles runAvg speedWind from/ knotsBaromVisibWave heightAir tempDewpointWater temp
2015-Jan-10 18:27N 01°16' E 104°11'1011.5
2015-Jan-10 17:33N 01°15' E 104°01'5 4.7
2015-Jan-10 16:33N 01°17' E 103°57'0 0.0
2015-Jan-10 15:11N 01°17' E 103°57'0 0.1
2015-Jan-10 14:05N 01°17' E 103°57'0 0.1
2015-Jan-10 13:11N 01°17' E 103°57'0 0.0
2015-Jan-10 12:17N 01°17' E 103°57'0 0.1
2015-Jan-10 11:05N 01°17' E 103°57'0 0.0
2015-Jan-10 09:29N 01°17' E 103°57'0 0.0
2015-Jan-10 08:29N 01°17' E 103°57'0 0.1
2015-Jan-10 07:17N 01°17' E 103°57'0 0.1
2015-Jan-10 06:05N 01°17' E 103°57'0 0.1
2015-Jan-10 05:17N 01°17' E 103°57'0 0.1
2015-Jan-10 04:29N 01°17' E 103°56'0 0.0
2015-Jan-10 03:29N 01°17' E 103°56'0 0.0
2015-Jan-10 02:17N 01°17' E 103°56'0 0.0
2015-Jan-10 01:05N 01°17' E 103°56'0 0.8
2015-Jan-10 00:31N 01°16' E 103°56'3 2.8
2015-Jan-09 23:33N 01°14' E 103°57'5 4.7
2015-Jan-09 22:32N 01°11' E 103°52'4 4.4
2015-Jan-09 21:31N 01°10' E 103°48'8111.2
2015-Jan-09 14:17N 01°44' E 102°34'  

Dump ship's entire track history